Time;durP1;ratioP1;P1;durP2;ratioP2;P2;SDS_P1;SDS_P2;PMS_P1;PMS_P2;Temp;Humidity;BMP_temperature;BMP_pressure;BME280_temperature;BME280_humidity;BME280_pressure;Samples;Min_cycle;Max_cycle;Signal;HPM_P1;HPM_P2
2022/01/21 00:00:29;;;;;;;;;3.25;2.50;;;;;-147.17;100.00;50511.34;5021903;28;51477;-58
2022/01/21 00:02:55;;;;;;;;;6.00;6.00;;;;;-147.17;100.00;50477.88;5028898;28;51031;-58
2022/01/21 00:05:23;;;;;;;;;11.75;11.25;;;;;-147.17;100.00;50489.69;5015191;28;51638;-58
2022/01/21 00:07:48;;;;;;;;;3.75;3.00;;;;;-147.17;100.00;50495.59;5018997;28;54269;-58
2022/01/21 00:10:14;;;;;;;;;6.75;5.25;;;;;-147.17;100.00;50481.81;5028203;28;51153;-57
2022/01/21 00:12:39;;;;;;;;;5.50;5.50;;;;;-147.17;100.00;50521.19;5032119;28;51186;-59
2022/01/21 00:15:07;;;;;;;;;8.50;6.00;;;;;-147.17;100.00;50493.63;5032670;28;52550;-58
2022/01/21 00:17:33;;;;;;;;;6.00;5.25;;;;;-147.17;100.00;50479.84;5032408;28;50910;-58
2022/01/21 00:30:08;;;;;;;;;7.50;7.50;;;;;-147.17;100.00;50477.88;5029106;28;51381;-58
2022/01/21 00:30:55;;;;;;;;;8.00;7.25;;;;;-147.17;100.00;50475.91;5020769;28;51228;-58
2022/01/21 00:33:20;;;;;;;;;6.75;6.00;;;;;-147.17;100.00;50485.75;5030784;28;51286;-57
2022/01/21 00:35:46;;;;;;;;;6.00;4.50;;;;;-147.17;100.00;50477.88;5028190;28;51841;-55
2022/01/21 00:38:14;;;;;;;;;5.25;4.50;;;;;-147.17;100.00;50479.84;5022218;28;51288;-58
2022/01/21 00:40:39;;;;;;;;;9.00;8.00;;;;;-147.17;100.00;50495.59;5016975;28;51156;-58
2022/01/21 00:45:33;;;;;;;;;12.75;8.50;;;;;-147.17;100.00;50481.81;5020121;28;51187;-58
2022/01/21 00:47:59;;;;;;;;;9.00;7.50;;;;;-147.17;100.00;50460.16;5023696;28;51336;-58
2022/01/21 00:50:25;;;;;;;;;7.25;7.00;;;;;-147.17;100.00;50475.91;5019385;28;51055;-58
2022/01/21 00:52:50;;;;;;;;;5.75;5.75;;;;;-147.17;100.00;50473.94;5031232;28;51589;-58
2022/01/21 00:55:16;;;;;;;;;7.50;6.00;;;;;-147.17;100.00;50505.44;5019173;28;51633;-58
2022/01/21 00:57:41;;;;;;;;;6.00;6.00;;;;;-147.17;100.00;50517.25;5026378;28;51066;-58
2022/01/21 01:00:10;;;;;;;;;7.75;7.00;;;;;-147.17;100.00;50485.75;5023564;28;51062;-58
2022/01/21 01:02:36;;;;;;;;;7.75;7.00;;;;;-147.17;100.00;50468.03;5018356;28;51023;-60
2022/01/21 01:05:01;;;;;;;;;7.00;6.75;;;;;-147.17;100.00;50466.06;5025407;28;52201;-58
2022/01/21 01:07:26;;;;;;;;;7.75;6.50;;;;;-147.17;100.00;50471.97;5010200;28;50989;-56
2022/01/21 01:09:55;;;;;;;;;6.25;5.00;;;;;-147.17;100.00;50507.41;5019968;28;51287;-56
2022/01/21 01:12:55;;;;;;;;;7.75;7.50;;;;;-147.17;100.00;50456.22;5027833;28;51146;-56
2022/01/21 01:20:35;;;;;;;;;6.00;6.00;;;;;-147.17;100.00;50454.25;5022903;28;51534;-57
2022/01/21 01:23:20;;;;;;;;;7.25;7.00;;;;;-147.17;100.00;50511.34;5014075;28;51057;-56
2022/01/21 01:28:30;;;;;;;;;7.00;6.75;;;;;-147.17;100.00;50462.13;5027241;28;51042;-57
2022/01/21 01:30:55;;;;;;;;;7.00;6.00;;;;;-147.17;100.00;50505.44;5020341;28;51987;-57
2022/01/21 01:33:24;;;;;;;;;5.25;5.25;;;;;-147.17;100.00;50470.00;5024376;28;51193;-56
2022/01/21 01:35:50;;;;;;;;;5.50;5.50;;;;;-147.17;100.00;50493.63;5021437;28;52718;-57
2022/01/21 01:39:03;;;;;;;;;7.00;6.50;;;;;-147.17;100.00;50473.94;5022248;28;51201;-57
2022/01/21 01:41:12;;;;;;;;;6.25;6.25;;;;;-147.17;100.00;50475.91;5013927;28;51556;-59
2022/01/21 01:49:28;;;;;;;;;8.25;7.00;;;;;-147.17;100.00;50466.06;5013543;28;51145;-59
2022/01/21 01:51:55;;;;;;;;;7.00;6.75;;;;;-147.17;100.00;50452.28;5017259;28;51185;-57
2022/01/21 01:54:21;;;;;;;;;6.25;5.75;;;;;-147.17;100.00;50466.06;5025404;28;51190;-58
2022/01/21 01:56:51;;;;;;;;;7.50;5.75;;;;;-147.17;100.00;50450.31;5014084;28;52198;-63
2022/01/21 01:59:17;;;;;;;;;6.75;6.00;;;;;-147.17;100.00;50466.06;5015948;28;51001;-58
2022/01/21 02:01:56;;;;;;;;;5.00;5.00;;;;;-147.17;100.00;50466.06;5023477;28;51245;-58
2022/01/21 02:04:23;;;;;;;;;8.50;6.25;;;;;-147.17;100.00;50481.81;5030974;28;50950;-58
2022/01/21 02:06:48;;;;;;;;;7.50;7.00;;;;;-147.17;100.00;50501.50;5022135;28;52224;-58
2022/01/21 02:09:14;;;;;;;;;6.50;6.00;;;;;-147.17;100.00;50477.88;5028275;28;51194;-57
2022/01/21 02:11:40;;;;;;;;;4.50;4.50;;;;;-147.17;100.00;50450.31;5022718;28;51350;-58
2022/01/21 02:14:09;;;;;;;;;6.00;4.75;;;;;-147.17;100.00;50450.31;5019514;28;51812;-58
2022/01/21 02:16:44;;;;;;;;;7.00;7.00;;;;;-147.17;100.00;50462.13;5018874;28;52010;-58
2022/01/21 02:21:54;;;;;;;;;7.25;6.25;;;;;-147.17;100.00;50458.19;5019803;28;51105;-56
2022/01/21 02:24:31;;;;;;;;;6.75;6.00;;;;;-147.17;100.00;50466.06;5031216;28;51080;-57
2022/01/21 02:26:59;;;;;;;;;6.75;6.00;;;;;-147.17;100.00;50464.09;5013993;28;53297;-56
2022/01/21 02:29:30;;;;;;;;;7.50;6.00;;;;;-147.17;100.00;50456.22;5027106;28;51107;-58
2022/01/21 02:31:59;;;;;;;;;7.00;6.75;;;;;-147.17;100.00;50470.00;5021658;28;51079;-58
2022/01/21 02:34:25;;;;;;;;;5.25;4.00;;;;;-147.17;100.00;50460.16;5014342;28;51330;-58
2022/01/21 02:36:50;;;;;;;;;5.50;5.00;;;;;-147.17;100.00;50466.06;5015164;28;52927;-58
2022/01/21 02:39:16;;;;;;;;;6.25;5.25;;;;;-147.17;100.00;50450.31;5016898;28;50943;-57
2022/01/21 02:41:41;;;;;;;;;7.00;6.00;;;;;-147.17;100.00;50460.16;5020483;28;51259;-57
2022/01/21 02:44:13;;;;;;;;;7.75;7.50;;;;;-147.17;100.00;50470.00;5031936;28;51281;-58
2022/01/21 02:46:40;;;;;;;;;6.00;6.00;;;;;-147.17;100.00;50462.13;5015450;28;53021;-58
2022/01/21 02:49:06;;;;;;;;;6.00;5.00;;;;;-147.17;100.00;50450.31;5015523;28;51141;-58
2022/01/21 02:51:31;;;;;;;;;6.00;6.00;;;;;-147.17;100.00;50458.19;5019058;28;54217;-57
2022/01/21 02:56:22;;;;;;;;;6.75;5.25;;;;;-147.17;100.00;50473.94;5029901;28;51201;-57
2022/01/21 02:58:47;;;;;;;;;6.75;6.00;;;;;-147.17;100.00;50454.25;5033186;28;51076;-57
2022/01/21 03:01:17;;;;;;;;;6.50;5.00;;;;;-147.17;100.00;50468.03;5026718;28;51335;-57
2022/01/21 03:03:44;;;;;;;;;7.00;5.75;;;;;-147.17;100.00;50450.31;5015393;28;50923;-57
2022/01/21 03:06:10;;;;;;;;;5.25;5.00;;;;;-147.17;100.00;50456.22;5014076;28;52930;-57
2022/01/21 03:08:35;;;;;;;;;10.00;9.00;;;;;-147.17;100.00;50436.53;5018045;28;51191;-58
2022/01/21 03:11:00;;;;;;;;;5.50;5.00;;;;;-147.17;100.00;50444.41;5018910;28;51099;-57
2022/01/21 03:13:26;;;;;;;;;9.00;7.00;;;;;-147.17;100.00;50483.78;5014952;28;51377;-58
2022/01/21 03:15:52;;;;;;;;;6.25;6.25;;;;;-147.17;100.00;50450.31;5026250;28;51156;-57
2022/01/21 03:18:18;;;;;;;;;6.50;5.75;;;;;-147.17;100.00;50446.38;5018185;28;51103;-58
2022/01/21 03:20:44;;;;;;;;;6.25;6.25;;;;;-147.17;100.00;50450.31;5024359;28;51305;-57
2022/01/21 03:23:15;;;;;;;;;8.00;6.75;;;;;-147.17;100.00;50426.69;5015615;28;51313;-58
2022/01/21 03:25:42;;;;;;;;;24.25;22.50;;;;;-147.17;100.00;50470.00;5024731;28;52382;-58
2022/01/21 03:28:08;;;;;;;;;6.25;5.25;;;;;-147.17;100.00;50452.28;5024393;28;51252;-58
2022/01/21 03:30:34;;;;;;;;;7.50;6.75;;;;;-147.17;100.00;50466.06;5020509;28;50987;-58
2022/01/21 03:32:59;;;;;;;;;6.75;6.75;;;;;-147.17;100.00;50450.31;5027844;28;51257;-57
2022/01/21 03:35:25;;;;;;;;;6.00;6.00;;;;;-147.17;100.00;50460.16;5014794;28;50930;-58
2022/01/21 03:37:50;;;;;;;;;6.75;4.50;;;;;-147.17;100.00;50422.75;5014786;28;51111;-57
2022/01/21 03:40:15;;;;;;;;;6.50;6.50;;;;;-147.17;100.00;50460.16;5029470;28;50956;-58
2022/01/21 03:42:41;;;;;;;;;7.50;7.00;;;;;-147.17;100.00;50436.53;5019390;28;51428;-57
2022/01/21 03:45:07;;;;;;;;;6.25;6.25;;;;;-147.17;100.00;50466.06;5030989;28;51861;-58
2022/01/21 03:47:32;;;;;;;;;5.50;5.50;;;;;-147.17;100.00;50460.16;5017668;28;51087;-57
2022/01/21 03:50:18;;;;;;;;;6.75;6.75;;;;;-147.17;100.00;50450.31;5015157;28;51076;-57
2022/01/21 03:52:43;;;;;;;;;7.25;6.25;;;;;-147.17;100.00;50450.31;5027574;28;50913;-56
2022/01/21 03:55:08;;;;;;;;;6.50;6.50;;;;;-147.17;100.00;50462.13;5028235;28;52231;-58
2022/01/21 03:57:34;;;;;;;;;8.75;5.50;;;;;-147.17;100.00;50428.66;5024322;28;51162;-57
2022/01/21 03:59:59;;;;;;;;;6.50;5.50;;;;;-147.17;100.00;50432.59;5027013;28;51189;-58
2022/01/21 04:02:25;;;;;;;;;3.00;3.00;;;;;-147.17;100.00;50446.38;5025297;28;51157;-58
2022/01/21 04:04:50;;;;;;;;;6.00;5.50;;;;;-147.17;100.00;50487.72;5028423;28;52189;-58
2022/01/21 04:07:15;;;;;;;;;7.00;7.00;;;;;-147.17;100.00;50446.38;5024819;28;51158;-56
2022/01/21 04:09:41;;;;;;;;;7.00;6.75;;;;;-147.17;100.00;50430.63;5013486;28;51674;-58
2022/01/21 04:12:07;;;;;;;;;6.00;6.00;;;;;-147.17;100.00;50442.44;5021151;28;50960;-58
2022/01/21 04:14:34;;;;;;;;;5.25;5.25;;;;;-147.17;100.00;50432.59;5013843;28;51090;-58
2022/01/21 04:16:59;;;;;;;;;8.75;6.00;;;;;-147.17;100.00;50438.50;5017852;28;51139;-58
2022/01/21 04:19:26;;;;;;;;;6.25;5.25;;;;;-147.17;100.00;50466.06;5032388;28;51121;-58
2022/01/21 04:21:52;;;;;;;;;5.00;5.00;;;;;-147.17;100.00;50446.38;5023081;28;51412;-58
2022/01/21 04:24:17;;;;;;;;;6.50;5.75;;;;;-147.17;100.00;50475.91;5023242;28;51984;-57
2022/01/21 04:26:43;;;;;;;;;4.50;4.50;;;;;-147.17;100.00;50450.31;5012938;28;51162;-58
2022/01/21 04:29:08;;;;;;;;;6.25;5.25;;;;;-147.17;100.00;50418.81;5016254;28;50955;-57
2022/01/21 04:31:33;;;;;;;;;7.00;6.75;;;;;-147.17;100.00;50466.06;5012153;28;51533;-57
2022/01/21 04:33:59;;;;;;;;;7.50;5.00;;;;;-147.17;100.00;50450.31;5016946;28;51690;-57
2022/01/21 04:36:24;;;;;;;;;6.25;5.75;;;;;-147.17;100.00;50454.25;5012349;28;51526;-58
2022/01/21 04:38:53;;;;;;;;;6.25;5.00;;;;;-147.17;100.00;50444.41;5018977;28;51298;-57
2022/01/21 04:47:12;;;;;;;;;3.00;3.00;;;;;-147.17;100.00;50442.44;5012833;28;51124;-57
2022/01/21 04:47:20;;;;;;;;;4.00;4.00;;;;;-147.17;100.00;50450.31;5012793;28;51400;-56
2022/01/21 04:49:47;;;;;;;;;6.25;5.75;;;;;-147.17;100.00;50475.91;5013173;28;52381;-57
2022/01/21 04:52:12;;;;;;;;;6.75;6.75;;;;;-147.17;100.00;50471.97;5027282;28;50944;-58
2022/01/21 04:54:38;;;;;;;;;9.25;7.25;;;;;-147.17;100.00;50477.88;5019729;28;51886;-57
2022/01/21 04:57:05;;;;;;;;;8.25;5.00;;;;;-147.17;100.00;50462.13;5020476;28;51340;-56
2022/01/21 04:59:30;;;;;;;;;6.00;6.00;;;;;-147.17;100.00;50456.22;5027708;28;51157;-57
2022/01/21 05:01:56;;;;;;;;;5.75;5.75;;;;;-147.17;100.00;50458.19;5030351;28;51002;-57
2022/01/21 05:04:22;;;;;;;;;7.75;6.50;;;;;-147.17;100.00;50438.50;5014505;28;51745;-57
2022/01/21 05:06:49;;;;;;;;;9.00;6.00;;;;;-147.17;100.00;50456.22;5018566;28;51265;-57
2022/01/21 05:09:18;;;;;;;;;6.25;6.00;;;;;-147.17;100.00;50473.94;5018127;28;50947;-57
2022/01/21 05:11:45;;;;;;;;;6.75;6.00;;;;;-147.17;100.00;50430.63;5016590;28;51102;-57
2022/01/21 05:14:17;;;;;;;;;3.00;3.00;;;;;-147.17;100.00;50438.50;5016952;28;51893;-57
2022/01/21 05:16:47;;;;;;;;;5.00;5.00;;;;;-147.17;100.00;50460.16;5018753;28;51351;-57
2022/01/21 05:19:16;;;;;;;;;5.00;5.00;;;;;-147.17;100.00;50432.59;5012249;28;51148;-57
2022/01/21 05:21:47;;;;;;;;;2.25;0.50;;;;;-147.17;100.00;50458.19;5014844;28;50964;-57
2022/01/21 05:24:13;;;;;;;;;7.00;6.00;;;;;-147.17;100.00;50450.31;5014050;28;52509;-57
2022/01/21 05:26:41;;;;;;;;;5.25;4.00;;;;;-147.17;100.00;50493.63;5013839;28;51049;-57
2022/01/21 05:29:09;;;;;;;;;5.75;5.00;;;;;-147.17;100.00;50442.44;5026067;28;51238;-57
2022/01/21 05:31:34;;;;;;;;;6.00;5.00;;;;;-147.17;100.00;50466.06;5016051;28;51327;-57
2022/01/21 05:34:00;;;;;;;;;8.25;5.25;;;;;-147.17;100.00;50446.38;5015713;28;51896;-57
2022/01/21 05:36:26;;;;;;;;;5.75;5.00;;;;;-147.17;100.00;50454.25;5013554;28;51216;-57
2022/01/21 05:38:53;;;;;;;;;7.50;6.75;;;;;-147.17;100.00;50414.88;5013565;28;51074;-57
2022/01/21 05:41:21;;;;;;;;;5.75;5.00;;;;;-147.17;100.00;50444.41;5016617;28;51266;-57
2022/01/21 05:43:47;;;;;;;;;7.50;6.75;;;;;-147.17;100.00;50466.06;5017063;28;51193;-57
2022/01/21 05:46:23;;;;;;;;;8.50;5.50;;;;;-147.17;100.00;50473.94;5018908;28;51087;-57
2022/01/21 05:48:49;;;;;;;;;6.25;6.00;;;;;-147.17;100.00;50497.56;5025319;28;51171;-57
2022/01/21 05:51:16;;;;;;;;;5.75;3.50;;;;;-147.17;100.00;50450.31;5026434;28;51155;-57
2022/01/21 05:53:42;;;;;;;;;5.50;5.25;;;;;-147.17;100.00;50452.28;5017484;28;52051;-57
2022/01/21 05:56:08;;;;;;;;;7.00;6.00;;;;;-147.17;100.00;50473.94;5024091;28;51315;-57
2022/01/21 05:58:33;;;;;;;;;7.50;5.00;;;;;-147.17;100.00;50442.44;5011587;28;51162;-57
2022/01/21 06:00:59;;;;;;;;;5.00;3.00;;;;;-147.17;100.00;50462.13;5016638;28;51204;-57
2022/01/21 06:03:24;;;;;;;;;6.50;5.50;;;;;-147.17;100.00;50438.50;5022715;28;52105;-58
2022/01/21 06:05:50;;;;;;;;;6.00;5.00;;;;;-147.17;100.00;50450.31;5025187;28;50895;-57
2022/01/21 06:08:15;;;;;;;;;5.25;5.25;;;;;-147.17;100.00;50466.06;5024118;28;51134;-57
2022/01/21 06:10:41;;;;;;;;;7.75;6.00;;;;;-147.17;100.00;50487.72;5017305;28;51202;-57
2022/01/21 06:13:06;;;;;;;;;4.50;3.50;;;;;-147.17;100.00;50460.16;5011382;28;52172;-57
2022/01/21 06:15:32;;;;;;;;;9.00;7.00;;;;;-147.17;100.00;50458.19;5023975;28;51078;-57
2022/01/21 06:17:57;;;;;;;;;14.75;13.50;;;;;-147.17;100.00;50458.19;5018450;28;51196;-57
2022/01/21 06:20:23;;;;;;;;;4.50;2.75;;;;;-147.17;100.00;50477.88;5015487;28;50920;-58
2022/01/21 06:22:48;;;;;;;;;6.00;6.00;;;;;-147.17;100.00;50426.69;5019573;28;51822;-57
2022/01/21 06:25:14;;;;;;;;;4.50;3.50;;;;;-147.17;100.00;50434.56;5014516;28;51099;-57
2022/01/21 06:27:39;;;;;;;;;5.25;3.00;;;;;-147.17;100.00;50466.06;5016941;28;51180;-57
2022/01/21 06:30:07;;;;;;;;;5.50;5.00;;;;;-147.17;100.00;50446.38;5022266;28;51255;-57
2022/01/21 06:32:33;;;;;;;;;4.50;4.50;;;;;-147.17;100.00;50481.81;5016247;28;51887;-57
2022/01/21 06:34:58;;;;;;;;;5.00;4.00;;;;;-147.17;100.00;50460.16;5029440;28;51086;-57
2022/01/21 06:37:23;;;;;;;;;6.50;5.00;;;;;-147.17;100.00;50456.22;5017501;28;50950;-57
2022/01/21 06:39:49;;;;;;;;;5.75;5.25;;;;;-147.17;100.00;50468.03;5015537;28;51072;-57
2022/01/21 06:42:16;;;;;;;;;5.75;5.75;;;;;-147.17;100.00;50466.06;5020192;28;52095;-57
2022/01/21 06:44:41;;;;;;;;;6.75;6.25;;;;;-147.17;100.00;50473.94;5027658;28;51281;-57
2022/01/21 06:47:07;;;;;;;;;3.00;3.00;;;;;-147.17;100.00;50434.56;5018275;28;51429;-57
2022/01/21 06:49:32;;;;;;;;;6.25;5.00;;;;;-147.17;100.00;50450.31;5024833;28;51379;-57
2022/01/21 06:51:57;;;;;;;;;7.00;6.50;;;;;-147.17;100.00;50458.19;5026599;28;51954;-57
2022/01/21 06:54:23;;;;;;;;;6.00;6.00;;;;;-147.17;100.00;50503.47;5021825;28;51241;-57
2022/01/21 06:56:48;;;;;;;;;4.75;4.50;;;;;-147.17;100.00;50473.94;5015537;28;50840;-57
2022/01/21 06:59:14;;;;;;;;;5.00;3.00;;;;;-147.17;100.00;50456.22;5013835;28;51249;-56
2022/01/21 07:01:39;;;;;;;;;6.25;5.50;;;;;-147.17;100.00;50473.94;5015764;28;52194;-58
2022/01/21 07:04:04;;;;;;;;;8.75;6.50;;;;;-147.17;100.00;50466.06;5023410;28;51201;-57
2022/01/21 07:06:30;;;;;;;;;9.00;6.00;;;;;-147.17;100.00;50466.06;5025267;28;51617;-56
2022/01/21 07:08:56;;;;;;;;;5.00;5.00;;;;;-147.17;100.00;50466.06;5014974;28;51263;-58
2022/01/21 07:11:21;;;;;;;;;7.00;6.00;;;;;-147.17;100.00;50454.25;5019898;28;51695;-56
2022/01/21 07:13:47;;;;;;;;;5.00;4.50;;;;;-147.17;100.00;50470.00;5013043;28;51061;-57
2022/01/21 07:16:12;;;;;;;;;3.00;3.00;;;;;-147.17;100.00;50436.53;5016511;28;51231;-58
2022/01/21 07:18:38;;;;;;;;;5.00;5.00;;;;;-147.17;100.00;50454.25;5019548;28;51436;-56
2022/01/21 07:21:03;;;;;;;;;6.00;6.00;;;;;-147.17;100.00;50454.25;5023421;28;51988;-56
2022/01/21 07:23:28;;;;;;;;;5.75;4.00;;;;;-147.17;100.00;50456.22;5031999;28;51121;-58
2022/01/21 07:25:54;;;;;;;;;7.50;6.25;;;;;-147.17;100.00;50460.16;5026407;28;51028;-60
2022/01/21 07:28:19;;;;;;;;;5.25;5.25;;;;;-147.17;100.00;50438.50;5025104;28;51114;-59
2022/01/21 07:30:44;;;;;;;;;6.75;5.25;;;;;-147.17;100.00;50450.31;5021920;28;51551;-58
2022/01/21 07:33:10;;;;;;;;;6.00;6.00;;;;;-147.17;100.00;50468.03;5022216;28;51013;-57
2022/01/21 07:35:36;;;;;;;;;7.25;6.00;;;;;-147.17;100.00;50442.44;5010657;28;51104;-58
2022/01/21 07:38:01;;;;;;;;;8.50;7.25;;;;;-147.17;100.00;50464.09;5038583;28;50991;-57
2022/01/21 07:40:27;;;;;;;;;7.50;6.00;;;;;-147.17;100.00;50464.09;5017660;28;51199;-57
2022/01/21 07:42:52;;;;;;;;;7.00;5.00;;;;;-147.17;100.00;50466.06;5012753;28;51008;-57
2022/01/21 07:45:18;;;;;;;;;6.75;6.75;;;;;-147.17;100.00;50456.22;5017479;28;51117;-57
2022/01/21 07:47:43;;;;;;;;;7.00;6.75;;;;;-147.17;100.00;50456.22;5028380;28;51129;-57
2022/01/21 07:50:09;;;;;;;;;6.00;6.00;;;;;-147.17;100.00;50483.78;5016353;28;52632;-58
2022/01/21 07:52:34;;;;;;;;;6.75;5.00;;;;;-147.17;100.00;50450.31;5016873;28;51243;-58
2022/01/21 07:55:00;;;;;;;;;7.25;6.00;;;;;-147.17;100.00;50477.88;5026822;28;50949;-61
2022/01/21 07:57:25;;;;;;;;;5.25;5.25;;;;;-147.17;100.00;50464.09;5017800;28;51519;-62
2022/01/21 07:59:51;;;;;;;;;6.25;6.00;;;;;-147.17;100.00;50462.13;5021154;28;51896;-62
2022/01/21 08:02:18;;;;;;;;;5.00;5.00;;;;;-147.17;100.00;50454.25;5025530;28;51113;-62
2022/01/21 08:04:43;;;;;;;;;7.25;7.00;;;;;-147.17;100.00;50458.19;5031429;28;51245;-62
2022/01/21 08:07:10;;;;;;;;;7.75;7.50;;;;;-147.17;100.00;50454.25;5031254;28;51062;-61
2022/01/21 08:09:35;;;;;;;;;7.00;6.75;;;;;-147.17;100.00;50470.00;5032371;28;51057;-61
2022/01/21 08:12:01;;;;;;;;;6.25;6.25;;;;;-147.17;100.00;50499.53;5032863;28;51086;-61
2022/01/21 08:14:26;;;;;;;;;6.75;6.25;;;;;-147.17;100.00;50440.47;5031606;28;51559;-61
2022/01/21 08:16:53;;;;;;;;;7.00;7.00;;;;;-147.17;100.00;50462.13;5033112;28;51282;-63
2022/01/21 08:19:19;;;;;;;;;10.50;8.25;;;;;-147.17;100.00;50458.19;5035242;28;51172;-62
2022/01/21 08:21:44;;;;;;;;;10.75;10.25;;;;;-147.17;100.00;50477.88;5023265;28;51103;-63
2022/01/21 08:24:10;;;;;;;;;9.00;7.75;;;;;-147.17;100.00;50460.16;5015283;28;51088;-61
2022/01/21 08:26:36;;;;;;;;;8.00;6.75;;;;;-147.17;100.00;50470.00;5015592;28;51271;-62
2022/01/21 08:29:04;;;;;;;;;10.75;10.75;;;;;-147.17;100.00;50475.91;5014921;28;51154;-61
2022/01/21 08:31:29;;;;;;;;;8.25;7.50;;;;;-147.17;100.00;50462.13;5024032;28;50996;-62
2022/01/21 08:33:55;;;;;;;;;11.00;10.00;;;;;-147.17;100.00;50481.81;5019642;28;50850;-62
2022/01/21 08:36:21;;;;;;;;;10.25;8.00;;;;;-147.17;100.00;50456.22;5019984;28;50766;-62
2022/01/21 08:38:47;;;;;;;;;7.00;7.00;;;;;-147.17;100.00;50446.38;5012812;28;52072;-62
2022/01/21 08:41:12;;;;;;;;;7.50;7.00;;;;;-147.17;100.00;50470.00;5012906;28;51061;-61
2022/01/21 08:43:37;;;;;;;;;11.00;10.25;;;;;-147.17;100.00;50475.91;5012830;28;51599;-61
2022/01/21 08:46:04;;;;;;;;;10.50;10.00;;;;;-147.17;100.00;50440.47;5012794;28;51241;-61
2022/01/21 08:48:29;;;;;;;;;10.00;10.00;;;;;-147.17;100.00;50448.34;5012271;28;52363;-61
2022/01/21 08:51:00;;;;;;;;;11.00;10.50;;;;;-147.17;100.00;50450.31;5011404;28;51093;-62
2022/01/21 08:53:38;;;;;;;;;10.75;8.50;;;;;-147.17;100.00;50452.28;5012665;28;50903;-61
2022/01/21 08:56:07;;;;;;;;;10.75;10.50;;;;;-147.17;100.00;50448.34;5012724;28;51081;-61
2022/01/21 08:58:33;;;;;;;;;11.75;11.00;;;;;-147.17;100.00;50481.81;5009515;28;52014;-61
2022/01/21 09:00:59;;;;;;;;;5.75;2.75;;;;;-147.17;100.00;50458.19;5012161;28;51082;-60
2022/01/21 09:03:24;;;;;;;;;10.25;9.50;;;;;-147.17;100.00;50470.00;5022556;28;50898;-65
2022/01/21 09:05:50;;;;;;;;;7.75;7.75;;;;;-147.17;100.00;50473.94;5015009;28;51049;-62
2022/01/21 09:08:17;;;;;;;;;12.50;10.50;;;;;-147.17;100.00;50460.16;5021559;28;51743;-61
2022/01/21 09:10:45;;;;;;;;;7.25;7.25;;;;;-147.17;100.00;50477.88;5014209;28;51233;-61
2022/01/21 09:13:10;;;;;;;;;9.00;8.00;;;;;-147.17;100.00;50462.13;5012034;28;51203;-61
2022/01/21 09:15:37;;;;;;;;;8.50;7.75;;;;;-147.17;100.00;50481.81;5016509;28;51085;-62
2022/01/21 09:18:05;;;;;;;;;11.25;10.50;;;;;-147.17;100.00;50470.00;5031606;28;51885;-61
2022/01/21 09:20:31;;;;;;;;;8.50;8.50;;;;;-147.17;100.00;50473.94;5014032;28;51083;-62
2022/01/21 09:22:57;;;;;;;;;10.75;9.25;;;;;-147.17;100.00;50497.56;5012208;28;51061;-62
2022/01/21 09:25:22;;;;;;;;;7.75;6.75;;;;;-147.17;100.00;50497.56;5012205;28;50877;-61
2022/01/21 09:27:48;;;;;;;;;11.50;10.50;;;;;-147.17;100.00;50503.47;5019739;28;51320;-62
2022/01/21 09:30:13;;;;;;;;;11.00;11.00;;;;;-147.17;100.00;50519.22;5013921;28;50976;-61
2022/01/21 09:32:39;;;;;;;;;9.25;9.25;;;;;-147.17;100.00;50503.47;5011849;28;50885;-62
2022/01/21 09:35:05;;;;;;;;;10.25;9.75;;;;;-147.17;100.00;50477.88;5011912;28;51460;-62
2022/01/21 09:37:30;;;;;;;;;11.50;11.00;;;;;-147.17;100.00;50491.66;5011882;28;52241;-61
2022/01/21 09:39:56;;;;;;;;;11.25;11.25;;;;;-147.17;100.00;50503.47;5028316;28;51106;-61
2022/01/21 09:42:21;;;;;;;;;10.25;9.00;;;;;-147.17;100.00;50485.75;5020507;28;51138;-62
2022/01/21 09:44:49;;;;;;;;;10.00;9.75;;;;;-147.17;100.00;50525.13;5011775;28;50964;-62
2022/01/21 09:47:16;;;;;;;;;1.50;1.00;;;;;-147.17;100.00;50509.38;5021455;28;54126;-61
2022/01/21 09:49:45;;;;;;;;;12.00;8.00;;;;;-147.17;100.00;50487.72;5012612;28;50992;-61
2022/01/21 09:52:13;;;;;;;;;10.50;9.50;;;;;-147.17;100.00;50477.88;5011632;28;51088;-62
2022/01/21 09:54:47;;;;;;;;;12.25;11.75;;;;;-147.17;100.00;50493.63;5011664;28;51353;-62
2022/01/21 09:57:18;;;;;;;;;14.00;11.50;;;;;-147.17;100.00;50497.56;5011148;28;51287;-61
2022/01/21 09:59:44;;;;;;;;;9.25;9.25;;;;;-147.17;100.00;50485.75;5011770;28;51293;-62
2022/01/21 10:02:10;;;;;;;;;10.00;7.25;;;;;-147.17;100.00;50483.78;5018528;28;51044;-62
2022/01/21 10:04:47;;;;;;;;;9.50;9.25;;;;;-147.17;100.00;50507.41;5011226;28;51110;-62
2022/01/21 10:07:17;;;;;;;;;10.75;10.50;;;;;-147.17;100.00;50501.50;5011227;28;50957;-62
2022/01/21 10:09:45;;;;;;;;;15.75;12.75;;;;;-147.17;100.00;50499.53;5012829;28;51072;-61
2022/01/21 10:12:11;;;;;;;;;10.00;10.00;;;;;-147.17;100.00;50481.81;5013767;28;51000;-61
2022/01/21 10:14:38;;;;;;;;;7.50;7.50;;;;;-147.17;100.00;50507.41;5013548;28;51409;-61
2022/01/21 10:17:05;;;;;;;;;16.25;10.00;;;;;-147.17;100.00;50499.53;5013970;28;51226;-61
2022/01/21 10:19:33;;;;;;;;;14.00;11.75;;;;;-147.17;100.00;50501.50;5014453;28;51160;-62
2022/01/21 10:22:05;;;;;;;;;12.25;12.25;;;;;-147.17;100.00;50493.63;5015131;28;50918;-62
2022/01/21 10:24:33;;;;;;;;;7.50;7.50;;;;;-147.17;100.00;50509.38;5014727;28;50946;-62
2022/01/21 10:26:59;;;;;;;;;8.00;6.00;;;;;-147.17;100.00;50550.72;5025500;28;54125;-62
2022/01/21 10:29:35;;;;;;;;;9.25;7.00;;;;;-147.17;100.00;50497.56;5015253;28;51073;-62
2022/01/21 10:32:01;;;;;;;;;12.50;11.00;;;;;-147.17;100.00;50507.41;5014106;28;51261;-62
2022/01/21 10:34:30;;;;;;;;;13.00;12.00;;;;;-147.17;100.00;50511.34;5015173;28;51301;-62
2022/01/21 10:37:05;;;;;;;;;13.25;11.75;;;;;-147.17;100.00;50519.22;5013984;28;51174;-63
2022/01/21 10:39:32;;;;;;;;;12.00;12.00;;;;;-147.17;100.00;50501.50;5014641;28;50901;-62
2022/01/21 10:42:00;;;;;;;;;11.50;10.50;;;;;-147.17;100.00;50521.19;5013699;28;51090;-62
2022/01/21 10:44:30;;;;;;;;;12.50;10.75;;;;;-147.17;100.00;50509.38;5011733;28;50963;-62
2022/01/21 10:47:07;;;;;;;;;14.50;11.75;;;;;-147.17;100.00;50521.19;5013322;28;52061;-61
2022/01/21 10:49:35;;;;;;;;;11.25;11.25;;;;;-147.17;100.00;50517.25;5024022;28;50902;-61
2022/01/21 10:52:02;;;;;;;;;13.50;12.75;;;;;-147.17;100.00;50501.50;5015134;28;50901;-61
2022/01/21 10:54:30;;;;;;;;;14.50;13.25;;;;;-147.17;100.00;50519.22;5014222;28;51216;-61
2022/01/21 10:57:09;;;;;;;;;12.25;12.25;;;;;-147.17;100.00;50499.53;5013500;28;51218;-62
2022/01/21 10:59:59;;;;;;;;;14.00;12.50;;;;;-147.17;100.00;50529.06;5013709;28;51136;-61
2022/01/21 11:02:47;;;;;;;;;16.75;12.50;;;;;-147.17;100.00;50505.44;5014506;28;51057;-61
2022/01/21 11:05:30;;;;;;;;;14.00;12.75;;;;;-147.17;100.00;50497.56;5021955;28;51277;-61
2022/01/21 11:08:02;;;;;;;;;13.25;13.00;;;;;-147.17;100.00;50485.75;5011955;28;52016;-61
2022/01/21 11:10:36;;;;;;;;;14.00;13.00;;;;;-147.17;100.00;50501.50;5013756;28;51025;-64
2022/01/21 11:13:10;;;;;;;;;11.25;9.50;;;;;-147.17;100.00;50527.09;5013494;28;51149;-62
2022/01/21 11:15:41;;;;;;;;;16.25;13.75;;;;;-147.17;100.00;50517.25;5013230;28;51078;-62
2022/01/21 11:18:09;;;;;;;;;12.00;10.75;;;;;-147.17;100.00;50533.00;5013148;28;51924;-62
2022/01/21 11:20:38;;;;;;;;;17.00;12.00;;;;;-147.17;100.00;50499.53;5010722;28;51133;-62
2022/01/21 11:23:03;;;;;;;;;14.00;12.00;;;;;-147.17;100.00;50519.22;5013441;28;51060;-62
2022/01/21 11:25:46;;;;;;;;;14.25;13.25;;;;;-147.17;100.00;50513.31;5030928;28;51062;-61
2022/01/21 11:28:13;;;;;;;;;10.75;9.00;;;;;-147.17;100.00;50519.22;5029234;28;51989;-62
2022/01/21 11:30:40;;;;;;;;;13.00;11.50;;;;;-147.17;100.00;50517.25;5012092;28;51065;-61
2022/01/21 11:33:05;;;;;;;;;17.00;14.00;;;;;-147.17;100.00;50513.31;5012903;28;51040;-64
2022/01/21 11:35:31;;;;;;;;;13.25;12.25;;;;;-147.17;100.00;50534.97;5013257;28;50901;-62
2022/01/21 11:37:58;;;;;;;;;18.00;17.00;;;;;-147.17;100.00;50527.09;5013085;28;51047;-62
2022/01/21 11:40:25;;;;;;;;;13.75;13.75;;;;;-147.17;100.00;50536.94;5012183;28;51035;-61